createdAt,value
2023-04-23T00:01:43.592Z,36.40
2023-04-23T00:04:50.866Z,38.40
2023-04-23T00:07:54.127Z,38.10
2023-04-23T00:10:55.995Z,38.00
2023-04-23T00:13:57.920Z,39.50
2023-04-23T00:16:59.528Z,41.80
2023-04-23T00:23:03.302Z,29.30
2023-04-23T00:29:06.571Z,26.00
2023-04-23T00:32:08.467Z,30.10
2023-04-23T00:35:10.511Z,32.90
2023-04-23T00:38:12.249Z,27.30
2023-04-23T00:44:15.618Z,23.80
2023-04-23T00:50:18.763Z,29.20
2023-04-23T00:56:22.892Z,30.10
2023-04-23T00:59:28.905Z,31.40
2023-04-23T01:02:31.236Z,28.20
2023-04-23T01:05:33.053Z,34.90
2023-04-23T01:11:39.546Z,30.90
2023-04-23T01:14:41.806Z,33.50
2023-04-23T01:17:43.626Z,34.90
2023-04-23T01:23:47.039Z,31.20
2023-04-23T01:29:50.297Z,35.00
2023-04-23T01:32:52.113Z,31.60
2023-04-23T01:35:54.544Z,31.90
2023-04-23T01:38:56.210Z,30.70
2023-04-23T01:41:57.841Z,32.70
2023-04-23T01:44:59.597Z,32.90
2023-04-23T01:51:02.983Z,37.30
2023-04-23T01:57:06.187Z,34.00
2023-04-23T02:00:10.563Z,34.50
2023-04-23T02:03:12.368Z,35.00
2023-04-23T02:06:14.349Z,36.90
2023-04-23T02:12:17.609Z,35.30
2023-04-23T02:18:20.951Z,35.30
2023-04-23T02:21:24.777Z,38.40
2023-04-23T02:24:26.399Z,37.30
2023-04-23T02:27:28.288Z,38.60
2023-04-23T02:30:30.080Z,33.60
2023-04-23T02:33:31.721Z,35.40
2023-04-23T02:36:33.452Z,38.80
2023-04-23T02:42:36.600Z,36.80
2023-04-23T02:45:38.262Z,36.70
2023-04-23T02:51:42.674Z,39.10
2023-04-23T02:54:44.359Z,38.10
2023-04-23T02:57:46.539Z,38.70
2023-04-23T03:00:48.196Z,39.40
2023-04-23T03:03:50.092Z,35.00
2023-04-23T03:06:52.029Z,36.10
2023-04-23T03:09:53.876Z,41.30
2023-04-23T03:12:55.958Z,34.10
2023-04-23T03:15:57.625Z,30.70
2023-04-23T03:18:59.416Z,28.70
2023-04-23T03:25:02.946Z,33.50
2023-04-23T03:28:04.852Z,30.30
2023-04-23T03:31:06.640Z,32.80
2023-04-23T03:34:08.352Z,30.50
2023-04-23T03:37:09.984Z,34.40
2023-04-23T03:40:11.851Z,35.70
2023-04-23T03:43:13.531Z,34.50
2023-04-23T03:46:15.293Z,33.10
2023-04-23T03:49:17.471Z,33.10
2023-04-23T03:52:19.452Z,33.40
2023-04-23T03:55:21.369Z,31.40
2023-04-23T03:58:23.057Z,34.30
2023-04-23T04:04:26.807Z,34.40
2023-04-23T04:07:29.237Z,34.10
2023-04-23T04:10:31.098Z,30.90
2023-04-23T04:13:32.783Z,33.60
2023-04-23T04:19:36.236Z,32.50
2023-04-23T04:25:39.766Z,33.80
2023-04-23T04:28:41.414Z,38.20
2023-04-23T04:31:43.580Z,32.00
2023-04-23T04:34:45.500Z,36.30
2023-04-23T04:40:48.817Z,38.00
2023-04-23T04:46:52.151Z,40.10
2023-04-23T04:49:56.888Z,36.60
2023-04-23T04:52:58.769Z,39.60
2023-04-23T04:59:02.478Z,39.40
2023-04-23T05:02:04.202Z,39.40
2023-04-23T05:05:06.467Z,45.50
2023-04-23T05:08:08.236Z,46.30
2023-04-23T05:14:11.546Z,41.90
2023-04-23T05:20:14.939Z,40.50
2023-04-23T05:23:16.613Z,42.40
2023-04-23T05:26:18.385Z,43.00
2023-04-23T05:29:20.089Z,40.00
2023-04-23T05:32:21.865Z,41.40
2023-04-23T05:35:23.556Z,41.10
2023-04-23T05:38:25.262Z,40.50
2023-04-23T05:41:27.590Z,42.80
2023-04-23T05:44:30.039Z,40.70
2023-04-23T05:47:31.720Z,41.90
2023-04-23T05:50:34.074Z,44.50
2023-04-23T05:53:35.813Z,44.40
2023-04-23T05:56:37.497Z,42.10
2023-04-23T05:59:39.897Z,39.60
2023-04-23T06:02:42.248Z,40.70
2023-04-23T06:05:44.329Z,40.50
2023-04-23T06:08:46.197Z,38.30
2023-04-23T06:11:47.999Z,38.30
2023-04-23T06:14:49.741Z,39.70
2023-04-23T06:17:51.365Z,39.10
2023-04-23T06:20:53.576Z,38.00
2023-04-23T06:23:55.215Z,37.30
2023-04-23T06:26:56.898Z,40.00
2023-04-23T06:29:58.824Z,37.60
2023-04-23T06:33:01.949Z,35.50
2023-04-23T06:36:04.829Z,34.10
2023-04-23T06:39:06.507Z,36.40
2023-04-23T06:42:08.178Z,37.80
2023-04-23T06:45:10.299Z,32.90
2023-04-23T06:48:12.007Z,37.30
2023-04-23T06:51:14.792Z,33.00
2023-04-23T06:54:16.492Z,33.50
2023-04-23T06:57:18.465Z,32.90
2023-04-23T07:00:20.328Z,32.90
2023-04-23T07:03:22.125Z,34.90
2023-04-23T07:06:23.917Z,31.60
2023-04-23T07:09:26.652Z,30.80
2023-04-23T07:12:28.248Z,29.50
2023-04-23T07:15:29.903Z,28.80
2023-04-23T07:18:32.434Z,31.70
2023-04-23T07:21:34.204Z,29.80
2023-04-23T07:24:36.049Z,30.10
2023-04-23T07:27:37.999Z,29.70
2023-04-23T07:30:39.843Z,26.80
2023-04-23T07:33:41.643Z,28.20
2023-04-23T07:36:43.315Z,28.10
2023-04-23T07:39:45.060Z,29.90
2023-04-23T07:42:47.123Z,27.80
2023-04-23T07:45:48.760Z,25.00
2023-04-23T07:48:50.502Z,24.60
2023-04-23T07:51:52.093Z,25.10
2023-04-23T07:54:53.882Z,25.20
2023-04-23T07:57:55.504Z,22.40
2023-04-23T08:00:57.320Z,21.60
2023-04-23T08:03:59.785Z,24.40
2023-04-23T08:07:01.590Z,23.20
2023-04-23T08:10:03.331Z,22.00
2023-04-23T08:13:04.994Z,22.90
2023-04-23T08:16:06.825Z,23.30
2023-04-23T08:19:08.470Z,21.70
2023-04-23T08:22:10.194Z,21.40
2023-04-23T08:25:11.947Z,20.60
2023-04-23T08:28:13.556Z,20.00
2023-04-23T08:31:25.664Z,22.20
2023-04-23T08:34:28.445Z,19.60
2023-04-23T08:37:31.555Z,19.90
2023-04-23T08:40:36.907Z,19.60
2023-04-23T08:43:44.521Z,19.40
2023-04-23T08:46:46.249Z,16.80
2023-04-23T08:49:48.823Z,18.90
2023-04-23T08:52:53.307Z,16.70
2023-04-23T08:55:56.466Z,18.60
2023-04-23T08:58:58.711Z,19.00
2023-04-23T09:02:00.551Z,19.60
2023-04-23T09:05:05.935Z,19.50
2023-04-23T09:08:07.555Z,18.30
2023-04-23T09:11:09.203Z,15.30
2023-04-23T09:14:12.803Z,18.30
2023-04-23T09:17:14.453Z,18.80
2023-04-23T09:20:16.200Z,14.70
2023-04-23T09:23:21.982Z,15.80
2023-04-23T09:26:23.630Z,14.80
2023-04-23T09:29:25.504Z,20.30
2023-04-23T09:32:34.485Z,16.10
2023-04-23T09:35:39.090Z,14.80
2023-04-23T09:38:42.478Z,15.20
2023-04-23T09:41:45.169Z,16.60
2023-04-23T09:44:56.931Z,18.60
2023-04-23T09:47:59.194Z,14.80
2023-04-23T09:51:02.228Z,15.20
2023-04-23T09:54:04.021Z,14.10
2023-04-23T09:57:06.185Z,14.40
2023-04-23T10:00:19.917Z,13.40
2023-04-23T10:03:27.635Z,12.80
2023-04-23T10:06:42.537Z,11.60
2023-04-23T10:09:51.680Z,15.30
2023-04-23T10:12:55.494Z,15.00
2023-04-23T10:16:07.155Z,12.70
2023-04-23T10:19:18.697Z,13.80
2023-04-23T10:22:22.150Z,13.20
2023-04-23T10:25:24.707Z,12.00
2023-04-23T10:28:30.452Z,12.30
2023-04-23T10:31:32.994Z,13.40
2023-04-23T10:34:34.720Z,10.90
2023-04-23T10:37:37.214Z,15.60
2023-04-23T10:40:40.467Z,12.60
2023-04-23T10:43:42.236Z,11.50
2023-04-23T10:46:55.733Z,15.60
2023-04-23T10:49:57.656Z,12.50
2023-04-23T10:52:59.326Z,13.30
2023-04-23T10:56:07.884Z,11.00
2023-04-23T10:59:19.399Z,13.10
2023-04-23T11:02:23.849Z,10.80
2023-04-23T11:05:26.764Z,12.50
2023-04-23T11:08:30.753Z,14.00
2023-04-23T11:11:40.573Z,9.80
2023-04-23T11:17:53.430Z,11.60
2023-04-23T11:20:56.866Z,11.40
2023-04-23T11:24:02.329Z,12.10
2023-04-23T11:27:10.919Z,12.30
2023-04-23T11:30:23.050Z,14.40
2023-04-23T11:33:24.713Z,13.80
2023-04-23T11:36:27.299Z,9.20
2023-04-23T11:39:28.934Z,12.20
2023-04-23T11:42:30.527Z,11.70
2023-04-23T11:45:32.315Z,12.30
2023-04-23T11:48:35.244Z,11.10
2023-04-23T11:51:41.635Z,11.30
2023-04-23T11:54:43.271Z,13.70
2023-04-23T11:57:49.566Z,11.40
2023-04-23T12:00:57.965Z,13.00
2023-04-23T12:03:59.828Z,11.30
2023-04-23T12:07:04.317Z,12.00
2023-04-23T12:10:10.044Z,13.80
2023-04-23T12:13:21.023Z,11.90
2023-04-23T12:16:43.696Z,13.30
2023-04-23T12:19:45.578Z,12.10
2023-04-23T12:22:47.805Z,13.10
2023-04-23T12:25:49.643Z,12.10
2023-04-23T12:28:55.999Z,14.90
2023-04-23T12:32:00.723Z,13.60
2023-04-23T12:35:02.517Z,15.50
2023-04-23T12:38:07.443Z,13.80
2023-04-23T12:41:09.174Z,15.90
2023-04-23T12:44:11.235Z,15.50
2023-04-23T12:47:13.035Z,13.80
2023-04-23T12:50:14.698Z,11.50
2023-04-23T12:53:16.326Z,10.40
2023-04-23T12:56:18.016Z,13.20
2023-04-23T12:59:19.748Z,13.50
2023-04-23T13:02:21.801Z,12.20
2023-04-23T13:05:23.975Z,14.60
2023-04-23T13:08:25.589Z,13.50
2023-04-23T13:11:27.266Z,11.60
2023-04-23T13:14:29.064Z,12.50
2023-04-23T13:17:30.940Z,11.60
2023-04-23T13:20:32.684Z,11.50
2023-04-23T13:23:34.321Z,14.60
2023-04-23T13:26:35.965Z,12.60
2023-04-23T13:29:37.689Z,14.40
2023-04-23T13:32:39.449Z,12.50
2023-04-23T13:35:41.123Z,13.10
2023-04-23T13:38:43.003Z,14.30
2023-04-23T13:41:44.597Z,13.40
2023-04-23T13:44:46.182Z,14.00
2023-04-23T13:47:47.896Z,15.10
2023-04-23T13:50:49.602Z,12.40
2023-04-23T13:53:51.242Z,13.60
2023-04-23T13:56:53.269Z,11.00
2023-04-23T13:59:55.632Z,9.20
2023-04-23T14:02:57.364Z,9.90
2023-04-23T14:05:59.148Z,11.10
2023-04-23T14:09:00.889Z,13.50
2023-04-23T14:12:04.503Z,12.30
2023-04-23T14:15:10.704Z,11.90
2023-04-23T14:18:12.361Z,11.60
2023-04-23T14:21:16.317Z,10.70
2023-04-23T14:24:22.977Z,17.30
2023-04-23T14:27:24.628Z,10.10
2023-04-23T14:30:26.379Z,7.80
2023-04-23T14:33:28.113Z,11.40
2023-04-23T14:36:30.451Z,10.60
2023-04-23T14:39:34.151Z,10.90
2023-04-23T14:42:35.890Z,11.00
2023-04-23T14:45:37.489Z,10.20
2023-04-23T14:48:39.234Z,12.90
2023-04-23T14:51:40.887Z,11.20
2023-04-23T14:54:42.535Z,12.90
2023-04-23T14:57:44.219Z,11.10
2023-04-23T15:00:45.944Z,13.00
2023-04-23T15:03:47.784Z,11.40
2023-04-23T15:06:49.523Z,13.00
2023-04-23T15:09:51.380Z,10.20
2023-04-23T15:13:03.127Z,10.80
2023-04-23T15:16:09.558Z,12.50
2023-04-23T15:19:11.327Z,13.40
2023-04-23T15:22:13.039Z,11.80
2023-04-23T15:25:14.800Z,10.10
2023-04-23T15:28:16.563Z,9.50
2023-04-23T15:31:18.649Z,11.90
2023-04-23T15:34:20.404Z,13.00
2023-04-23T15:37:22.036Z,12.40
2023-04-23T15:40:23.657Z,12.40
2023-04-23T15:43:25.357Z,11.10
2023-04-23T15:46:27.453Z,11.70
2023-04-23T15:49:29.094Z,8.50
2023-04-23T15:52:31.539Z,14.70
2023-04-23T15:55:33.270Z,15.20
2023-04-23T15:58:34.930Z,12.30
2023-04-23T16:01:36.678Z,13.50
2023-04-23T16:07:40.448Z,12.90
2023-04-23T16:10:42.018Z,13.10
2023-04-23T16:13:43.725Z,13.50
2023-04-23T16:16:45.470Z,15.30
2023-04-23T16:19:47.310Z,13.20
2023-04-23T16:22:49.311Z,14.40
2023-04-23T16:25:51.025Z,15.20
2023-04-23T16:29:05.718Z,13.00
2023-04-23T16:32:14.380Z,14.20
2023-04-23T16:35:16.146Z,13.80
2023-04-23T16:38:17.772Z,16.60
2023-04-23T16:41:20.318Z,16.80
2023-04-23T16:44:21.942Z,14.50
2023-04-23T16:47:23.671Z,15.90
2023-04-23T16:50:25.376Z,15.40
2023-04-23T16:53:27.032Z,17.10
2023-04-23T16:56:29.500Z,17.90
2023-04-23T16:59:31.576Z,16.10
2023-04-23T17:02:33.317Z,20.30
2023-04-23T17:05:35.036Z,19.00
2023-04-23T17:08:37.827Z,18.90
2023-04-23T17:11:39.449Z,18.30
2023-04-23T17:14:41.304Z,18.10
2023-04-23T17:17:43.517Z,19.00
2023-04-23T17:20:45.194Z,23.60
2023-04-23T17:23:47.422Z,24.40
2023-04-23T17:26:49.162Z,20.70
2023-04-23T17:29:50.755Z,22.60
2023-04-23T17:32:52.476Z,19.80
2023-04-23T17:35:54.242Z,20.70
2023-04-23T17:38:55.830Z,20.00
2023-04-23T17:41:57.531Z,19.90
2023-04-23T17:44:59.251Z,17.80
2023-04-23T17:48:00.996Z,17.30
2023-04-23T17:51:02.816Z,23.70
2023-04-23T17:54:05.179Z,18.10
2023-04-23T17:57:06.929Z,15.40
2023-04-23T18:00:09.316Z,20.70
2023-04-23T18:03:11.308Z,17.10
2023-04-23T18:06:13.180Z,17.60
2023-04-23T18:09:14.861Z,18.50
2023-04-23T18:12:16.797Z,18.70
2023-04-23T18:15:18.557Z,18.80
2023-04-23T18:18:20.253Z,19.40
2023-04-23T18:21:22.365Z,18.40
2023-04-23T18:24:24.691Z,20.50
2023-04-23T18:27:26.307Z,19.10
2023-04-23T18:30:28.526Z,20.00
2023-04-23T18:33:42.591Z,21.10
2023-04-23T18:36:44.265Z,21.80
2023-04-23T18:39:46.030Z,27.70
2023-04-23T18:42:47.656Z,37.60
2023-04-23T18:45:49.330Z,31.10
2023-04-23T18:48:52.780Z,28.70
2023-04-23T18:51:56.045Z,23.60
2023-04-23T18:54:57.757Z,21.20
2023-04-23T18:57:59.885Z,23.20
2023-04-23T19:01:01.839Z,26.50
2023-04-23T19:04:03.658Z,26.50
2023-04-23T19:07:05.615Z,32.10
2023-04-23T19:10:08.110Z,35.90
2023-04-23T19:13:09.688Z,30.30
2023-04-23T19:16:11.432Z,36.80
2023-04-23T19:19:13.184Z,48.50
2023-04-23T19:22:14.786Z,31.20
2023-04-23T19:25:16.606Z,28.50
2023-04-23T19:28:19.384Z,25.10
2023-04-23T19:31:21.209Z,27.60
2023-04-23T19:34:22.920Z,26.10
2023-04-23T19:37:24.672Z,26.40
2023-04-23T19:40:26.346Z,26.70
2023-04-23T19:43:27.993Z,25.30
2023-04-23T19:46:29.767Z,28.90
2023-04-23T19:49:31.540Z,30.80
2023-04-23T19:52:33.492Z,33.60
2023-04-23T19:55:35.149Z,36.00
2023-04-23T19:58:37.220Z,34.50
2023-04-23T20:01:38.950Z,31.90
2023-04-23T20:04:41.170Z,29.00
2023-04-23T20:07:43.058Z,29.20
2023-04-23T20:10:45.021Z,29.40
2023-04-23T20:13:46.699Z,31.80
2023-04-23T20:16:48.386Z,31.20
2023-04-23T20:19:50.201Z,29.70
2023-04-23T20:22:51.993Z,34.20
2023-04-23T20:25:53.776Z,35.60
2023-04-23T20:28:55.933Z,32.30
2023-04-23T20:31:57.585Z,34.00
2023-04-23T20:34:59.356Z,30.70
2023-04-23T20:38:01.111Z,34.10
2023-04-23T20:41:02.908Z,31.60
2023-04-23T20:44:04.948Z,34.00
2023-04-23T20:47:06.573Z,35.90
2023-04-23T20:50:08.643Z,35.20
2023-04-23T20:53:10.316Z,32.40
2023-04-23T20:56:11.986Z,33.30
2023-04-23T20:59:13.623Z,33.30
2023-04-23T21:02:15.309Z,38.20
2023-04-23T21:05:17.219Z,39.20
2023-04-23T21:08:18.858Z,42.50
2023-04-23T21:11:20.521Z,41.70
2023-04-23T21:14:22.254Z,35.30
2023-04-23T21:17:23.987Z,32.80
2023-04-23T21:20:25.598Z,35.80
2023-04-23T21:23:27.334Z,35.30
2023-04-23T21:26:30.383Z,31.10
2023-04-23T21:29:32.391Z,34.10
2023-04-23T21:32:34.107Z,33.80
2023-04-23T21:35:35.875Z,33.80
2023-04-23T21:38:37.707Z,38.00
2023-04-23T21:41:39.412Z,37.40
2023-04-23T21:44:41.096Z,32.30
2023-04-23T21:47:42.863Z,34.90
2023-04-23T21:50:44.602Z,31.20
2023-04-23T21:53:46.341Z,29.30
2023-04-23T21:56:48.046Z,34.90
2023-04-23T21:59:50.247Z,33.30
2023-04-23T22:02:52.215Z,36.60
2023-04-23T22:05:54.836Z,36.20
2023-04-23T22:08:56.636Z,34.30
2023-04-23T22:12:02.472Z,32.20
2023-04-23T22:15:06.544Z,31.90
2023-04-23T22:18:08.237Z,32.90
2023-04-23T22:21:09.990Z,33.20
2023-04-23T22:24:11.535Z,32.60
2023-04-23T22:30:14.978Z,30.40
2023-04-23T22:33:19.217Z,33.30
2023-04-23T22:36:20.880Z,30.10
2023-04-23T22:39:22.593Z,27.70
2023-04-23T22:42:24.159Z,28.60
2023-04-23T22:48:27.261Z,27.80
2023-04-23T22:51:28.928Z,27.70
2023-04-23T22:54:30.560Z,26.40
2023-04-23T22:57:32.250Z,26.00
2023-04-23T23:00:33.953Z,28.20
2023-04-23T23:03:35.641Z,27.10
2023-04-23T23:06:37.390Z,30.00
2023-04-23T23:09:39.014Z,29.90
2023-04-23T23:12:40.613Z,31.30
2023-04-23T23:15:42.239Z,27.70
2023-04-23T23:18:43.979Z,29.10
2023-04-23T23:21:45.747Z,29.80
2023-04-23T23:24:47.431Z,28.80
2023-04-23T23:27:49.071Z,28.30
2023-04-23T23:30:50.843Z,31.20
2023-04-23T23:33:53.268Z,30.30
2023-04-23T23:36:54.884Z,29.40
2023-04-23T23:39:56.524Z,27.10
2023-04-23T23:42:58.175Z,25.50
2023-04-23T23:45:59.872Z,29.40
2023-04-23T23:49:01.516Z,29.00
2023-04-23T23:52:03.218Z,28.60
2023-04-23T23:55:05.380Z,25.50
2023-04-23T23:58:07.066Z,26.60
